sensor_id;sensor_type;location;lat;lon;timestamp;temperature;humidity
20242;DHT22;10279;46.388;8.116;2024-01-10T00:02:20;3.20;99.90
20242;DHT22;10279;46.388;8.116;2024-01-10T00:04:48;3.20;99.90
20242;DHT22;10279;46.388;8.116;2024-01-10T00:07:15;3.20;99.90
20242;DHT22;10279;46.388;8.116;2024-01-10T00:09:42;3.20;99.90
20242;DHT22;10279;46.388;8.116;2024-01-10T00:12:09;3.20;99.90
20242;DHT22;10279;46.388;8.116;2024-01-10T00:14:36;3.20;99.90
20242;DHT22;10279;46.388;8.116;2024-01-10T00:17:03;3.20;99.90
20242;DHT22;10279;46.388;8.116;2024-01-10T00:19:30;3.20;99.90
20242;DHT22;10279;46.388;8.116;2024-01-10T00:21:58;3.20;99.90
20242;DHT22;10279;46.388;8.116;2024-01-10T00:24:25;3.20;99.90
20242;DHT22;10279;46.388;8.116;2024-01-10T00:26:52;3.20;99.90
20242;DHT22;10279;46.388;8.116;2024-01-10T00:29:19;3.20;99.90
20242;DHT22;10279;46.388;8.116;2024-01-10T00:31:46;3.10;99.90
20242;DHT22;10279;46.388;8.116;2024-01-10T00:34:13;3.10;99.90
20242;DHT22;10279;46.388;8.116;2024-01-10T00:36:41;3.20;99.90
20242;DHT22;10279;46.388;8.116;2024-01-10T00:39:08;3.20;99.90
20242;DHT22;10279;46.388;8.116;2024-01-10T00:41:35;3.10;99.90
20242;DHT22;10279;46.388;8.116;2024-01-10T00:44:02;3.10;99.90
20242;DHT22;10279;46.388;8.116;2024-01-10T00:46:30;3.10;99.90
20242;DHT22;10279;46.388;8.116;2024-01-10T00:48:57;3.10;99.90
20242;DHT22;10279;46.388;8.116;2024-01-10T00:51:24;3.10;99.90
20242;DHT22;10279;46.388;8.116;2024-01-10T00:53:51;3.00;99.90
20242;DHT22;10279;46.388;8.116;2024-01-10T00:56:18;3.00;99.90
20242;DHT22;10279;46.388;8.116;2024-01-10T00:58:45;3.00;99.90
20242;DHT22;10279;46.388;8.116;2024-01-10T01:01:12;3.00;99.90
20242;DHT22;10279;46.388;8.116;2024-01-10T01:03:40;2.90;99.90
20242;DHT22;10279;46.388;8.116;2024-01-10T01:06:07;3.00;99.90
20242;DHT22;10279;46.388;8.116;2024-01-10T01:08:34;3.00;99.90
20242;DHT22;10279;46.388;8.116;2024-01-10T01:11:01;3.00;99.90
20242;DHT22;10279;46.388;8.116;2024-01-10T01:13:29;3.00;99.90
20242;DHT22;10279;46.388;8.116;2024-01-10T01:15:56;3.00;99.90
20242;DHT22;10279;46.388;8.116;2024-01-10T01:18:23;3.00;99.90
20242;DHT22;10279;46.388;8.116;2024-01-10T01:20:50;2.90;99.90
20242;DHT22;10279;46.388;8.116;2024-01-10T01:23:17;2.90;99.90
20242;DHT22;10279;46.388;8.116;2024-01-10T01:26:02;2.90;99.90
20242;DHT22;10279;46.388;8.116;2024-01-10T01:28:30;2.90;99.90
20242;DHT22;10279;46.388;8.116;2024-01-10T01:30:59;2.90;99.90
20242;DHT22;10279;46.388;8.116;2024-01-10T01:33:26;2.80;99.90
20242;DHT22;10279;46.388;8.116;2024-01-10T01:35:53;2.80;99.90
20242;DHT22;10279;46.388;8.116;2024-01-10T01:38:21;2.80;99.90
20242;DHT22;10279;46.388;8.116;2024-01-10T01:40:48;2.80;99.90
20242;DHT22;10279;46.388;8.116;2024-01-10T01:43:25;2.80;99.90
20242;DHT22;10279;46.388;8.116;2024-01-10T01:45:54;2.80;99.90
20242;DHT22;10279;46.388;8.116;2024-01-10T01:48:23;2.80;99.90
20242;DHT22;10279;46.388;8.116;2024-01-10T01:50:56;2.80;99.90
20242;DHT22;10279;46.388;8.116;2024-01-10T01:53:25;2.90;99.90
20242;DHT22;10279;46.388;8.116;2024-01-10T01:55:53;2.80;99.90
20242;DHT22;10279;46.388;8.116;2024-01-10T01:58:21;2.90;99.90
20242;DHT22;10279;46.388;8.116;2024-01-10T02:00:50;2.90;99.90
20242;DHT22;10279;46.388;8.116;2024-01-10T02:03:17;2.90;99.90
20242;DHT22;10279;46.388;8.116;2024-01-10T02:05:45;2.80;99.90
20242;DHT22;10279;46.388;8.116;2024-01-10T02:08:13;2.80;99.90
20242;DHT22;10279;46.388;8.116;2024-01-10T02:10:41;2.60;99.90
20242;DHT22;10279;46.388;8.116;2024-01-10T02:13:09;2.60;99.90
20242;DHT22;10279;46.388;8.116;2024-01-10T02:15:38;2.60;99.90
20242;DHT22;10279;46.388;8.116;2024-01-10T02:18:06;2.60;99.90
20242;DHT22;10279;46.388;8.116;2024-01-10T02:20:33;2.70;99.90
20242;DHT22;10279;46.388;8.116;2024-01-10T02:23:00;2.70;99.90
20242;DHT22;10279;46.388;8.116;2024-01-10T02:25:28;2.60;99.90
20242;DHT22;10279;46.388;8.116;2024-01-10T02:27:55;2.60;99.90
20242;DHT22;10279;46.388;8.116;2024-01-10T02:30:22;2.60;99.90
20242;DHT22;10279;46.388;8.116;2024-01-10T02:32:50;2.60;99.90
20242;DHT22;10279;46.388;8.116;2024-01-10T02:35:17;2.70;99.90
20242;DHT22;10279;46.388;8.116;2024-01-10T02:37:44;2.70;99.90
20242;DHT22;10279;46.388;8.116;2024-01-10T02:40:12;2.60;99.90
20242;DHT22;10279;46.388;8.116;2024-01-10T02:42:39;2.70;99.90
20242;DHT22;10279;46.388;8.116;2024-01-10T02:45:06;2.70;99.90
20242;DHT22;10279;46.388;8.116;2024-01-10T02:47:34;2.70;99.90
20242;DHT22;10279;46.388;8.116;2024-01-10T02:50:02;2.60;99.90
20242;DHT22;10279;46.388;8.116;2024-01-10T02:52:29;2.60;99.90
20242;DHT22;10279;46.388;8.116;2024-01-10T02:54:56;2.60;99.90
20242;DHT22;10279;46.388;8.116;2024-01-10T02:57:23;2.60;99.90
20242;DHT22;10279;46.388;8.116;2024-01-10T02:59:50;2.60;99.90
20242;DHT22;10279;46.388;8.116;2024-01-10T03:02:17;2.60;99.90
20242;DHT22;10279;46.388;8.116;2024-01-10T03:04:44;2.60;99.90
20242;DHT22;10279;46.388;8.116;2024-01-10T03:07:12;2.60;99.90
20242;DHT22;10279;46.388;8.116;2024-01-10T03:09:39;2.50;99.90
20242;DHT22;10279;46.388;8.116;2024-01-10T03:12:06;2.50;99.90
20242;DHT22;10279;46.388;8.116;2024-01-10T03:14:33;2.50;99.90
20242;DHT22;10279;46.388;8.116;2024-01-10T03:17:03;2.60;99.90
20242;DHT22;10279;46.388;8.116;2024-01-10T03:19:30;2.60;99.90
20242;DHT22;10279;46.388;8.116;2024-01-10T03:21:57;2.60;99.90
20242;DHT22;10279;46.388;8.116;2024-01-10T03:24:24;2.60;99.90
20242;DHT22;10279;46.388;8.116;2024-01-10T03:26:54;2.60;99.90
20242;DHT22;10279;46.388;8.116;2024-01-10T03:29:21;2.50;99.90
20242;DHT22;10279;46.388;8.116;2024-01-10T03:31:48;2.50;99.90
20242;DHT22;10279;46.388;8.116;2024-01-10T03:34:15;2.50;99.90
20242;DHT22;10279;46.388;8.116;2024-01-10T03:36:45;2.50;99.90
20242;DHT22;10279;46.388;8.116;2024-01-10T03:39:12;2.40;99.90
20242;DHT22;10279;46.388;8.116;2024-01-10T03:41:39;2.50;99.90
20242;DHT22;10279;46.388;8.116;2024-01-10T03:44:06;2.50;99.90
20242;DHT22;10279;46.388;8.116;2024-01-10T03:46:34;2.50;99.90
20242;DHT22;10279;46.388;8.116;2024-01-10T03:49:01;2.50;99.90
20242;DHT22;10279;46.388;8.116;2024-01-10T03:51:28;2.50;99.90
20242;DHT22;10279;46.388;8.116;2024-01-10T03:53:56;2.50;99.90
20242;DHT22;10279;46.388;8.116;2024-01-10T03:56:23;2.50;99.90
20242;DHT22;10279;46.388;8.116;2024-01-10T03:58:50;2.50;99.90
20242;DHT22;10279;46.388;8.116;2024-01-10T04:01:22;2.60;99.90
20242;DHT22;10279;46.388;8.116;2024-01-10T04:03:49;2.60;99.90
20242;DHT22;10279;46.388;8.116;2024-01-10T04:06:16;2.60;99.90
20242;DHT22;10279;46.388;8.116;2024-01-10T04:08:44;2.60;99.90
20242;DHT22;10279;46.388;8.116;2024-01-10T04:11:11;2.60;99.90
20242;DHT22;10279;46.388;8.116;2024-01-10T04:13:38;2.60;99.90
20242;DHT22;10279;46.388;8.116;2024-01-10T04:16:06;2.60;99.90
20242;DHT22;10279;46.388;8.116;2024-01-10T04:18:33;2.60;99.90
20242;DHT22;10279;46.388;8.116;2024-01-10T04:21:00;2.70;99.90
20242;DHT22;10279;46.388;8.116;2024-01-10T04:23:28;2.70;99.90
20242;DHT22;10279;46.388;8.116;2024-01-10T04:25:57;2.70;99.90
20242;DHT22;10279;46.388;8.116;2024-01-10T04:28:24;2.70;99.90
20242;DHT22;10279;46.388;8.116;2024-01-10T04:30:51;2.70;99.90
20242;DHT22;10279;46.388;8.116;2024-01-10T04:33:18;2.70;99.90
20242;DHT22;10279;46.388;8.116;2024-01-10T04:35:47;2.70;99.90
20242;DHT22;10279;46.388;8.116;2024-01-10T04:38:14;2.70;99.90
20242;DHT22;10279;46.388;8.116;2024-01-10T04:40:41;2.70;99.90
20242;DHT22;10279;46.388;8.116;2024-01-10T04:43:08;2.70;99.90
20242;DHT22;10279;46.388;8.116;2024-01-10T04:45:35;2.70;99.90
20242;DHT22;10279;46.388;8.116;2024-01-10T04:48:02;2.80;99.90
20242;DHT22;10279;46.388;8.116;2024-01-10T04:50:30;2.80;99.90
20242;DHT22;10279;46.388;8.116;2024-01-10T04:52:57;2.80;99.90
20242;DHT22;10279;46.388;8.116;2024-01-10T04:55:24;2.80;99.90
20242;DHT22;10279;46.388;8.116;2024-01-10T04:57:51;2.80;99.90
20242;DHT22;10279;46.388;8.116;2024-01-10T05:00:18;2.80;99.90
20242;DHT22;10279;46.388;8.116;2024-01-10T05:02:46;2.80;99.90
20242;DHT22;10279;46.388;8.116;2024-01-10T05:05:13;2.80;99.90
20242;DHT22;10279;46.388;8.116;2024-01-10T05:07:40;2.90;99.90
20242;DHT22;10279;46.388;8.116;2024-01-10T05:10:07;2.80;99.90
20242;DHT22;10279;46.388;8.116;2024-01-10T05:12:34;2.80;99.90
20242;DHT22;10279;46.388;8.116;2024-01-10T05:15:02;2.80;99.90
20242;DHT22;10279;46.388;8.116;2024-01-10T05:17:29;2.80;99.90
20242;DHT22;10279;46.388;8.116;2024-01-10T05:19:56;2.80;99.90
20242;DHT22;10279;46.388;8.116;2024-01-10T05:22:23;2.90;99.90
20242;DHT22;10279;46.388;8.116;2024-01-10T05:24:50;2.90;99.90
20242;DHT22;10279;46.388;8.116;2024-01-10T05:27:17;2.90;99.90
20242;DHT22;10279;46.388;8.116;2024-01-10T05:29:44;2.90;99.90
20242;DHT22;10279;46.388;8.116;2024-01-10T05:32:13;2.80;99.90
20242;DHT22;10279;46.388;8.116;2024-01-10T05:34:40;2.80;99.90
20242;DHT22;10279;46.388;8.116;2024-01-10T05:37:07;2.90;99.90
20242;DHT22;10279;46.388;8.116;2024-01-10T05:39:34;2.90;99.90
20242;DHT22;10279;46.388;8.116;2024-01-10T05:42:01;2.90;99.90
20242;DHT22;10279;46.388;8.116;2024-01-10T05:44:32;2.80;99.90
20242;DHT22;10279;46.388;8.116;2024-01-10T05:46:59;2.80;99.90
20242;DHT22;10279;46.388;8.116;2024-01-10T05:49:26;2.80;99.90
20242;DHT22;10279;46.388;8.116;2024-01-10T05:51:53;2.80;99.90
20242;DHT22;10279;46.388;8.116;2024-01-10T05:54:20;2.80;99.90
20242;DHT22;10279;46.388;8.116;2024-01-10T05:56:48;2.90;99.90
20242;DHT22;10279;46.388;8.116;2024-01-10T05:59:16;2.90;99.90
20242;DHT22;10279;46.388;8.116;2024-01-10T06:01:43;2.90;99.90
20242;DHT22;10279;46.388;8.116;2024-01-10T06:04:11;2.90;99.90
20242;DHT22;10279;46.388;8.116;2024-01-10T06:06:38;2.90;99.90
20242;DHT22;10279;46.388;8.116;2024-01-10T06:09:05;2.80;99.90
20242;DHT22;10279;46.388;8.116;2024-01-10T06:11:32;2.90;99.90
20242;DHT22;10279;46.388;8.116;2024-01-10T06:13:59;2.90;99.90
20242;DHT22;10279;46.388;8.116;2024-01-10T06:16:26;2.90;99.90
20242;DHT22;10279;46.388;8.116;2024-01-10T06:18:53;2.90;99.90
20242;DHT22;10279;46.388;8.116;2024-01-10T06:21:21;2.90;99.90
20242;DHT22;10279;46.388;8.116;2024-01-10T06:23:48;2.90;99.90
20242;DHT22;10279;46.388;8.116;2024-01-10T06:26:15;2.90;99.90
20242;DHT22;10279;46.388;8.116;2024-01-10T06:28:42;2.90;99.90
20242;DHT22;10279;46.388;8.116;2024-01-10T06:31:10;2.90;99.90
20242;DHT22;10279;46.388;8.116;2024-01-10T06:33:38;2.90;99.90
20242;DHT22;10279;46.388;8.116;2024-01-10T06:36:06;3.00;99.90
20242;DHT22;10279;46.388;8.116;2024-01-10T06:38:33;3.00;99.90
20242;DHT22;10279;46.388;8.116;2024-01-10T06:41:00;3.00;99.90
20242;DHT22;10279;46.388;8.116;2024-01-10T06:43:28;2.90;99.90
20242;DHT22;10279;46.388;8.116;2024-01-10T06:45:55;2.90;99.90
20242;DHT22;10279;46.388;8.116;2024-01-10T06:48:22;2.90;99.90
20242;DHT22;10279;46.388;8.116;2024-01-10T06:50:49;2.90;99.90
20242;DHT22;10279;46.388;8.116;2024-01-10T06:53:16;3.00;99.90
20242;DHT22;10279;46.388;8.116;2024-01-10T06:55:44;3.00;99.90
20242;DHT22;10279;46.388;8.116;2024-01-10T06:58:11;3.00;99.90
20242;DHT22;10279;46.388;8.116;2024-01-10T07:00:38;3.00;99.90
20242;DHT22;10279;46.388;8.116;2024-01-10T07:03:05;3.00;99.90
20242;DHT22;10279;46.388;8.116;2024-01-10T07:05:33;3.00;99.90
20242;DHT22;10279;46.388;8.116;2024-01-10T07:08:02;3.00;99.90
20242;DHT22;10279;46.388;8.116;2024-01-10T07:10:30;3.00;99.90
20242;DHT22;10279;46.388;8.116;2024-01-10T07:12:57;3.00;99.90
20242;DHT22;10279;46.388;8.116;2024-01-10T07:15:24;2.90;99.90
20242;DHT22;10279;46.388;8.116;2024-01-10T07:17:51;3.00;99.90
20242;DHT22;10279;46.388;8.116;2024-01-10T07:20:19;3.00;99.90
20242;DHT22;10279;46.388;8.116;2024-01-10T07:22:46;3.00;99.90
20242;DHT22;10279;46.388;8.116;2024-01-10T07:25:14;3.00;99.90
20242;DHT22;10279;46.388;8.116;2024-01-10T07:27:41;3.00;99.90
20242;DHT22;10279;46.388;8.116;2024-01-10T07:30:09;3.00;99.90
20242;DHT22;10279;46.388;8.116;2024-01-10T07:32:43;3.00;99.90
20242;DHT22;10279;46.388;8.116;2024-01-10T07:35:12;2.90;99.90
20242;DHT22;10279;46.388;8.116;2024-01-10T07:37:41;2.90;99.90
20242;DHT22;10279;46.388;8.116;2024-01-10T07:40:10;3.00;99.90
20242;DHT22;10279;46.388;8.116;2024-01-10T07:42:38;3.00;99.90
20242;DHT22;10279;46.388;8.116;2024-01-10T07:45:06;3.10;99.90
20242;DHT22;10279;46.388;8.116;2024-01-10T07:47:35;3.10;99.90
20242;DHT22;10279;46.388;8.116;2024-01-10T07:50:07;3.20;99.90
20242;DHT22;10279;46.388;8.116;2024-01-10T07:52:34;3.10;99.90
20242;DHT22;10279;46.388;8.116;2024-01-10T07:55:02;3.10;99.90
20242;DHT22;10279;46.388;8.116;2024-01-10T07:57:33;3.00;99.90
20242;DHT22;10279;46.388;8.116;2024-01-10T08:00:20;3.00;99.90
20242;DHT22;10279;46.388;8.116;2024-01-10T08:02:47;3.00;99.90
20242;DHT22;10279;46.388;8.116;2024-01-10T08:05:17;3.00;99.90
20242;DHT22;10279;46.388;8.116;2024-01-10T08:07:44;3.00;99.90
20242;DHT22;10279;46.388;8.116;2024-01-10T08:10:11;3.00;99.90
20242;DHT22;10279;46.388;8.116;2024-01-10T08:12:40;3.10;99.90
20242;DHT22;10279;46.388;8.116;2024-01-10T08:15:12;3.10;99.90
20242;DHT22;10279;46.388;8.116;2024-01-10T08:17:39;3.20;99.90
20242;DHT22;10279;46.388;8.116;2024-01-10T08:20:07;3.20;99.90
20242;DHT22;10279;46.388;8.116;2024-01-10T08:22:36;3.20;99.90
20242;DHT22;10279;46.388;8.116;2024-01-10T08:25:04;3.20;99.90
20242;DHT22;10279;46.388;8.116;2024-01-10T08:27:31;3.20;99.90
20242;DHT22;10279;46.388;8.116;2024-01-10T08:30:00;3.30;99.90
20242;DHT22;10279;46.388;8.116;2024-01-10T08:32:27;3.30;99.90
20242;DHT22;10279;46.388;8.116;2024-01-10T08:34:55;3.40;99.90
20242;DHT22;10279;46.388;8.116;2024-01-10T08:37:22;3.40;99.90
20242;DHT22;10279;46.388;8.116;2024-01-10T08:39:49;3.50;99.90
20242;DHT22;10279;46.388;8.116;2024-01-10T08:42:17;3.50;99.90
20242;DHT22;10279;46.388;8.116;2024-01-10T08:44:44;3.40;99.90
20242;DHT22;10279;46.388;8.116;2024-01-10T08:47:11;3.40;99.90
20242;DHT22;10279;46.388;8.116;2024-01-10T08:49:39;3.40;99.90
20242;DHT22;10279;46.388;8.116;2024-01-10T08:52:06;3.40;99.90
20242;DHT22;10279;46.388;8.116;2024-01-10T08:54:33;3.40;99.90
20242;DHT22;10279;46.388;8.116;2024-01-10T08:57:00;3.40;99.90
20242;DHT22;10279;46.388;8.116;2024-01-10T08:59:27;3.50;99.90
20242;DHT22;10279;46.388;8.116;2024-01-10T09:01:55;3.60;99.90
20242;DHT22;10279;46.388;8.116;2024-01-10T09:04:22;3.50;99.90
20242;DHT22;10279;46.388;8.116;2024-01-10T09:06:49;3.50;99.90
20242;DHT22;10279;46.388;8.116;2024-01-10T09:09:17;3.50;99.90
20242;DHT22;10279;46.388;8.116;2024-01-10T09:11:48;3.50;99.90
20242;DHT22;10279;46.388;8.116;2024-01-10T09:14:15;3.60;99.90
20242;DHT22;10279;46.388;8.116;2024-01-10T09:16:42;3.60;99.90
20242;DHT22;10279;46.388;8.116;2024-01-10T09:19:09;3.60;99.90
20242;DHT22;10279;46.388;8.116;2024-01-10T09:21:39;3.70;99.90
20242;DHT22;10279;46.388;8.116;2024-01-10T09:24:07;3.80;99.90
20242;DHT22;10279;46.388;8.116;2024-01-10T09:26:54;3.80;99.90
20242;DHT22;10279;46.388;8.116;2024-01-10T09:29:21;3.90;99.90
20242;DHT22;10279;46.388;8.116;2024-01-10T09:31:48;3.90;99.90
20242;DHT22;10279;46.388;8.116;2024-01-10T09:34:16;3.90;99.90
20242;DHT22;10279;46.388;8.116;2024-01-10T09:36:44;3.90;99.90
20242;DHT22;10279;46.388;8.116;2024-01-10T09:39:11;4.00;99.90
20242;DHT22;10279;46.388;8.116;2024-01-10T09:41:46;4.10;99.90
20242;DHT22;10279;46.388;8.116;2024-01-10T09:44:20;4.10;99.90
20242;DHT22;10279;46.388;8.116;2024-01-10T09:46:53;4.20;99.90
20242;DHT22;10279;46.388;8.116;2024-01-10T09:49:21;4.30;99.90
20242;DHT22;10279;46.388;8.116;2024-01-10T09:51:51;4.30;99.90
20242;DHT22;10279;46.388;8.116;2024-01-10T09:54:21;4.40;99.90
20242;DHT22;10279;46.388;8.116;2024-01-10T09:56:51;4.40;99.90
20242;DHT22;10279;46.388;8.116;2024-01-10T09:59:18;4.50;99.90
20242;DHT22;10279;46.388;8.116;2024-01-10T10:01:45;4.60;99.90
20242;DHT22;10279;46.388;8.116;2024-01-10T10:04:13;4.60;99.90
20242;DHT22;10279;46.388;8.116;2024-01-10T10:06:42;4.70;99.90
20242;DHT22;10279;46.388;8.116;2024-01-10T10:09:10;4.70;99.90
20242;DHT22;10279;46.388;8.116;2024-01-10T10:11:38;4.70;99.90
20242;DHT22;10279;46.388;8.116;2024-01-10T10:14:14;4.70;99.90
20242;DHT22;10279;46.388;8.116;2024-01-10T10:16:42;4.80;99.90
20242;DHT22;10279;46.388;8.116;2024-01-10T10:19:09;4.70;99.90
20242;DHT22;10279;46.388;8.116;2024-01-10T10:21:43;4.80;99.90
20242;DHT22;10279;46.388;8.116;2024-01-10T10:24:10;4.70;99.90
20242;DHT22;10279;46.388;8.116;2024-01-10T10:26:42;4.80;99.90
20242;DHT22;10279;46.388;8.116;2024-01-10T10:29:09;4.90;99.90
20242;DHT22;10279;46.388;8.116;2024-01-10T10:31:36;4.90;99.90
20242;DHT22;10279;46.388;8.116;2024-01-10T10:34:03;4.90;99.90
20242;DHT22;10279;46.388;8.116;2024-01-10T10:36:31;4.90;99.90
20242;DHT22;10279;46.388;8.116;2024-01-10T10:39:00;4.90;99.90
20242;DHT22;10279;46.388;8.116;2024-01-10T10:41:31;5.00;99.90
20242;DHT22;10279;46.388;8.116;2024-01-10T10:44:00;5.10;99.90
20242;DHT22;10279;46.388;8.116;2024-01-10T10:46:31;5.10;99.90
20242;DHT22;10279;46.388;8.116;2024-01-10T10:49:00;5.20;99.90
20242;DHT22;10279;46.388;8.116;2024-01-10T10:51:36;5.10;99.90
20242;DHT22;10279;46.388;8.116;2024-01-10T10:54:04;5.20;99.90
20242;DHT22;10279;46.388;8.116;2024-01-10T10:56:33;5.20;99.90
20242;DHT22;10279;46.388;8.116;2024-01-10T10:59:04;5.30;99.90
20242;DHT22;10279;46.388;8.116;2024-01-10T11:01:31;5.30;99.90
20242;DHT22;10279;46.388;8.116;2024-01-10T11:04:00;5.20;99.90
20242;DHT22;10279;46.388;8.116;2024-01-10T11:06:27;5.30;99.90
20242;DHT22;10279;46.388;8.116;2024-01-10T11:09:03;5.40;99.90
20242;DHT22;10279;46.388;8.116;2024-01-10T11:23:34;5.60;99.90
20242;DHT22;10279;46.388;8.116;2024-01-10T11:26:03;5.70;99.90
20242;DHT22;10279;46.388;8.116;2024-01-10T11:28:31;5.70;99.90
20242;DHT22;10279;46.388;8.116;2024-01-10T11:30:58;5.70;99.90
20242;DHT22;10279;46.388;8.116;2024-01-10T11:33:36;5.70;99.90
20242;DHT22;10279;46.388;8.116;2024-01-10T11:36:18;5.70;99.90
20242;DHT22;10279;46.388;8.116;2024-01-10T11:41:35;5.80;99.90
20242;DHT22;10279;46.388;8.116;2024-01-10T11:46:49;6.00;99.90
20242;DHT22;10279;46.388;8.116;2024-01-10T11:49:18;6.00;99.90
20242;DHT22;10279;46.388;8.116;2024-01-10T11:51:47;6.10;99.90
20242;DHT22;10279;46.388;8.116;2024-01-10T11:59:42;6.20;99.90
20242;DHT22;10279;46.388;8.116;2024-01-10T12:02:10;6.20;99.90
20242;DHT22;10279;46.388;8.116;2024-01-10T12:04:39;6.10;99.90
20242;DHT22;10279;46.388;8.116;2024-01-10T12:07:15;6.10;99.90
20242;DHT22;10279;46.388;8.116;2024-01-10T12:09:43;6.10;99.90
20242;DHT22;10279;46.388;8.116;2024-01-10T12:12:11;6.10;99.90
20242;DHT22;10279;46.388;8.116;2024-01-10T12:14:39;6.10;99.90
20242;DHT22;10279;46.388;8.116;2024-01-10T12:17:07;6.20;99.90
20242;DHT22;10279;46.388;8.116;2024-01-10T12:19:36;6.20;99.90
20242;DHT22;10279;46.388;8.116;2024-01-10T12:22:06;6.20;99.90
20242;DHT22;10279;46.388;8.116;2024-01-10T12:24:47;6.20;99.90
20242;DHT22;10279;46.388;8.116;2024-01-10T12:27:19;6.30;99.90
20242;DHT22;10279;46.388;8.116;2024-01-10T12:29:52;6.40;99.90
20242;DHT22;10279;46.388;8.116;2024-01-10T12:32:21;6.60;99.90
20242;DHT22;10279;46.388;8.116;2024-01-10T12:35:02;6.70;99.90
20242;DHT22;10279;46.388;8.116;2024-01-10T12:37:30;6.80;99.90
20242;DHT22;10279;46.388;8.116;2024-01-10T12:39:58;6.90;99.90
20242;DHT22;10279;46.388;8.116;2024-01-10T12:42:25;6.90;99.90
20242;DHT22;10279;46.388;8.116;2024-01-10T12:44:53;6.90;99.90
20242;DHT22;10279;46.388;8.116;2024-01-10T12:47:21;6.90;99.90
20242;DHT22;10279;46.388;8.116;2024-01-10T12:49:48;6.90;99.90
20242;DHT22;10279;46.388;8.116;2024-01-10T12:52:16;6.90;99.90
20242;DHT22;10279;46.388;8.116;2024-01-10T12:54:48;6.80;99.90
20242;DHT22;10279;46.388;8.116;2024-01-10T12:57:15;6.90;99.90
20242;DHT22;10279;46.388;8.116;2024-01-10T12:59:42;6.90;99.90
20242;DHT22;10279;46.388;8.116;2024-01-10T13:02:09;6.90;99.90
20242;DHT22;10279;46.388;8.116;2024-01-10T13:04:36;6.90;99.90
20242;DHT22;10279;46.388;8.116;2024-01-10T13:07:03;7.00;99.90
20242;DHT22;10279;46.388;8.116;2024-01-10T13:09:30;7.10;99.90
20242;DHT22;10279;46.388;8.116;2024-01-10T13:12:00;7.20;99.90
20242;DHT22;10279;46.388;8.116;2024-01-10T13:14:27;7.20;99.90
20242;DHT22;10279;46.388;8.116;2024-01-10T13:16:54;7.20;99.90
20242;DHT22;10279;46.388;8.116;2024-01-10T13:19:26;7.20;99.90
20242;DHT22;10279;46.388;8.116;2024-01-10T13:21:54;7.20;99.90
20242;DHT22;10279;46.388;8.116;2024-01-10T13:24:22;7.20;99.90
20242;DHT22;10279;46.388;8.116;2024-01-10T13:26:49;7.20;99.90
20242;DHT22;10279;46.388;8.116;2024-01-10T13:29:16;7.30;99.90
20242;DHT22;10279;46.388;8.116;2024-01-10T13:31:43;7.30;99.90
20242;DHT22;10279;46.388;8.116;2024-01-10T13:34:11;7.40;99.90
20242;DHT22;10279;46.388;8.116;2024-01-10T13:36:39;7.40;99.90
20242;DHT22;10279;46.388;8.116;2024-01-10T13:39:06;7.40;99.90
20242;DHT22;10279;46.388;8.116;2024-01-10T13:41:34;7.40;99.90
20242;DHT22;10279;46.388;8.116;2024-01-10T13:44:01;7.40;99.90
20242;DHT22;10279;46.388;8.116;2024-01-10T13:46:29;7.40;99.90
20242;DHT22;10279;46.388;8.116;2024-01-10T13:48:56;7.50;99.90
20242;DHT22;10279;46.388;8.116;2024-01-10T13:51:23;7.60;99.90
20242;DHT22;10279;46.388;8.116;2024-01-10T13:53:50;7.80;99.90
20242;DHT22;10279;46.388;8.116;2024-01-10T13:56:17;7.90;99.90
20242;DHT22;10279;46.388;8.116;2024-01-10T13:58:44;7.80;99.90
20242;DHT22;10279;46.388;8.116;2024-01-10T14:01:11;7.80;99.90
20242;DHT22;10279;46.388;8.116;2024-01-10T14:03:39;7.80;99.90
20242;DHT22;10279;46.388;8.116;2024-01-10T14:06:06;7.90;99.90
20242;DHT22;10279;46.388;8.116;2024-01-10T14:08:33;7.90;99.90
20242;DHT22;10279;46.388;8.116;2024-01-10T14:11:01;7.80;99.90
20242;DHT22;10279;46.388;8.116;2024-01-10T14:13:28;7.90;99.90
20242;DHT22;10279;46.388;8.116;2024-01-10T14:15:55;8.00;99.90
20242;DHT22;10279;46.388;8.116;2024-01-10T14:18:22;8.20;99.90
20242;DHT22;10279;46.388;8.116;2024-01-10T14:20:49;8.30;99.90
20242;DHT22;10279;46.388;8.116;2024-01-10T14:23:16;8.30;99.90
20242;DHT22;10279;46.388;8.116;2024-01-10T14:25:45;8.40;99.90
20242;DHT22;10279;46.388;8.116;2024-01-10T14:28:12;8.40;99.90
20242;DHT22;10279;46.388;8.116;2024-01-10T14:30:40;8.40;99.90
20242;DHT22;10279;46.388;8.116;2024-01-10T14:33:07;8.30;99.90
20242;DHT22;10279;46.388;8.116;2024-01-10T14:35:35;8.20;99.90
20242;DHT22;10279;46.388;8.116;2024-01-10T14:38:03;8.10;99.90
20242;DHT22;10279;46.388;8.116;2024-01-10T14:40:30;7.90;99.90
20242;DHT22;10279;46.388;8.116;2024-01-10T14:42:57;7.70;99.90
20242;DHT22;10279;46.388;8.116;2024-01-10T14:45:25;7.60;99.90
20242;DHT22;10279;46.388;8.116;2024-01-10T14:47:52;7.30;99.90
20242;DHT22;10279;46.388;8.116;2024-01-10T14:50:19;7.20;99.90
20242;DHT22;10279;46.388;8.116;2024-01-10T14:52:47;7.10;99.90
20242;DHT22;10279;46.388;8.116;2024-01-10T14:55:15;6.90;99.90
20242;DHT22;10279;46.388;8.116;2024-01-10T14:57:42;6.80;99.90
20242;DHT22;10279;46.388;8.116;2024-01-10T15:00:10;6.60;99.90
20242;DHT22;10279;46.388;8.116;2024-01-10T15:02:38;6.50;99.90
20242;DHT22;10279;46.388;8.116;2024-01-10T15:05:06;6.30;99.90
20242;DHT22;10279;46.388;8.116;2024-01-10T15:07:33;6.10;99.90
20242;DHT22;10279;46.388;8.116;2024-01-10T15:10:00;6.10;99.90
20242;DHT22;10279;46.388;8.116;2024-01-10T15:12:30;6.00;99.90
20242;DHT22;10279;46.388;8.116;2024-01-10T15:14:57;5.80;99.90
20242;DHT22;10279;46.388;8.116;2024-01-10T15:17:29;5.80;99.90
20242;DHT22;10279;46.388;8.116;2024-01-10T15:19:57;5.70;99.90
20242;DHT22;10279;46.388;8.116;2024-01-10T15:22:24;5.70;99.90
20242;DHT22;10279;46.388;8.116;2024-01-10T15:24:51;5.70;99.90
20242;DHT22;10279;46.388;8.116;2024-01-10T15:27:18;5.70;99.90
20242;DHT22;10279;46.388;8.116;2024-01-10T15:29:45;5.70;99.90
20242;DHT22;10279;46.388;8.116;2024-01-10T15:32:22;5.70;99.90
20242;DHT22;10279;46.388;8.116;2024-01-10T15:34:49;5.60;99.90
20242;DHT22;10279;46.388;8.116;2024-01-10T15:37:17;5.50;99.90
20242;DHT22;10279;46.388;8.116;2024-01-10T15:39:46;5.50;99.90
20242;DHT22;10279;46.388;8.116;2024-01-10T15:42:13;5.50;99.90
20242;DHT22;10279;46.388;8.116;2024-01-10T15:44:42;5.50;99.90
20242;DHT22;10279;46.388;8.116;2024-01-10T15:47:09;5.40;99.90
20242;DHT22;10279;46.388;8.116;2024-01-10T15:49:37;5.40;99.90
20242;DHT22;10279;46.388;8.116;2024-01-10T15:52:06;5.40;99.90
20242;DHT22;10279;46.388;8.116;2024-01-10T15:54:34;5.30;99.90
20242;DHT22;10279;46.388;8.116;2024-01-10T15:57:05;5.30;99.90
20242;DHT22;10279;46.388;8.116;2024-01-10T15:59:33;5.30;99.90
20242;DHT22;10279;46.388;8.116;2024-01-10T16:02:00;5.20;99.90
20242;DHT22;10279;46.388;8.116;2024-01-10T16:04:28;5.10;99.90
20242;DHT22;10279;46.388;8.116;2024-01-10T16:06:55;5.10;99.90
20242;DHT22;10279;46.388;8.116;2024-01-10T16:09:22;5.00;99.90
20242;DHT22;10279;46.388;8.116;2024-01-10T16:11:50;4.90;99.90
20242;DHT22;10279;46.388;8.116;2024-01-10T16:14:17;4.90;99.90